Aérodrome :
LOGIN :

S'inscrire | Disclaimer

   EN    FR    IT 

 










Légende :    VFR   VFR Marginal   IFR   IFR Intensif   IFR Très Intensif
Visi : 
Plafond : 
>= 8 km
>= 3000ft
5 à 8 km
1000 à 3000 ft
1500m à 5 km
500 à 1000 ft
800 à 1500m
200 à 500 ft
< 800m
< 200 ft
Symboles :   Orages  Brouillard  Fortes neiges  Fortes précipitations  Vent > 20 kt
SIGMETs :   Divers  Orages  Givrage  Turbulence  Onde Orograph.  Cendres Volcan.







- Altitude de l'aérodrome : 144 ft
- Code IATA : PGF
- Voir les cartes d'approche


LFMP - Perpignan

DERNIER METAR :
  • 290700Z AUTO 30019G30KT 9999 OVC090 19/09 Q1007 BECMG 28012KT

METARs EXPIRÉS :
  • 290630Z AUTO 30017KT 9999 OVC078 19/09 Q1007 NOSIG
  • 290600Z AUTO 30016KT 9999 BKN080 19/10 Q1007 TEMPO 32015G30KT
  • 290530Z AUTO 31016KT 280V340 9999 FEW082 18/09 Q1006 TEMPO 32015G30KT
  • 290500Z AUTO 30018G30KT CAVOK 18/09 Q1006 NOSIG
  • 290430Z AUTO 30017G27KT 280V340 CAVOK 18/10 Q1006 NOSIG

TAF TAF LFMP
Valide du 29 à 03h jusqu'au 30 à 03h UTC


290200Z 2903/3003 28012KT CAVOK
TEMPO 2903/2907 32015G30KT
TEMPO 2913/2921 SHRA BKN020TCU
PROB30
TEMPO 2913/2919 VRB20G35KT 1200 TSRA BR BKN008CB
ATIS : +33 4 68 63 75 12
Pas de NOTAMs connus pour ce terrain.
1 SIGMET publié pour la FIR Marseille (LFMM) :
 
Turbulence forte
LFMM SIGMET 1 VALID 290530/290930 LFPW
LFMM MARSEILLE FIR/UIR SEV TURB FCST WI N4330 E00830 - N4315 E00945 - N4245 E00945 - N4230 E00830 SFC/FL050 STNR NC=



MET'MAP, la Météo Aéronautique d'un coup d'oeil ! - Copyright ORBIFLY Décembre 2007 - Disclaimer

ORBIFLY MET'MAP TEAM :

Programmation & Développement : Alexandra Zaïnal
Conception & Développement : Baudouin d'Aumeries
Co-Programmation & Développement : Marc-Olivier Méhu
Soutien technique & logistique : Manuel Goepfert

Contact : metmap@orbifly.com




SOURCES & CREDITS :

   NOAA